Time;durP1;ratioP1;P1;durP2;ratioP2;P2;SDS_P1;SDS_P2;PMS_P1;PMS_P2;Temp;Humidity;BMP_temperature;BMP_pressure;BME280_temperature;BME280_humidity;BME280_pressure;Samples;Min_cycle;Max_cycle;Signal;HPM_P1;HPM_P2
2023/07/07 00:00:46;;;;;;;6.50;4.60;;;20.50;81.50;;;;;;5074799;28;20028;-71
2023/07/07 00:03:12;;;;;;;11.13;5.10;;;20.50;81.30;;;;;;5075513;28;20104;-71
2023/07/07 00:05:37;;;;;;;7.40;4.57;;;20.50;81.30;;;;;;5075137;28;20059;-71
2023/07/07 00:08:04;;;;;;;8.57;4.90;;;20.40;81.90;;;;;;5074920;28;20043;-71
2023/07/07 00:10:29;;;;;;;9.60;4.95;;;20.40;81.70;;;;;;5075236;28;20119;-71
2023/07/07 00:12:55;;;;;;;6.63;4.60;;;20.40;81.90;;;;;;5074861;28;20052;-71
2023/07/07 00:15:21;;;;;;;7.70;5.22;;;20.40;82.30;;;;;;5075296;28;20035;-71
2023/07/07 00:17:47;;;;;;;6.68;4.90;;;20.30;82.40;;;;;;5074397;28;20032;-71
2023/07/07 00:20:14;;;;;;;6.45;4.43;;;20.30;82.50;;;;;;5074580;28;20063;-71
2023/07/07 00:22:40;;;;;;;6.57;4.95;;;20.30;82.70;;;;;;5075067;28;20056;-71
2023/07/07 00:25:07;;;;;;;13.68;4.97;;;20.30;83.00;;;;;;5074643;28;20024;-71
2023/07/07 00:27:34;;;;;;;6.60;4.57;;;20.20;83.40;;;;;;5074642;28;20040;-71
2023/07/07 00:30:00;;;;;;;14.20;4.80;;;20.20;83.20;;;;;;5074482;28;20042;-71
2023/07/07 00:32:26;;;;;;;8.15;5.13;;;20.20;83.40;;;;;;5074977;28;20425;-71
2023/07/07 00:34:52;;;;;;;11.43;4.80;;;20.20;83.70;;;;;;5074488;28;20029;-71
2023/07/07 00:37:18;;;;;;;8.70;4.60;;;20.10;83.70;;;;;;5074883;28;20389;-71
2023/07/07 00:39:43;;;;;;;8.02;5.60;;;20.10;84.60;;;;;;5074371;28;20029;-72
2023/07/07 00:42:10;;;;;;;11.95;4.40;;;20.10;84.00;;;;;;5074559;28;20094;-71
2023/07/07 00:45:13;;;;;;;9.88;4.97;;;20.00;84.60;;;;;;5074607;28;20028;-71
2023/07/07 00:48:03;;;;;;;13.90;4.78;;;20.00;85.10;;;;;;5074681;28;20135;-71
2023/07/07 00:50:34;;;;;;;8.27;5.15;;;19.90;85.30;;;;;;5074673;28;20017;-71
2023/07/07 00:53:00;;;;;;;12.55;4.90;;;19.90;85.10;;;;;;5074171;28;20043;-71
2023/07/07 00:55:38;;;;;;;10.18;5.13;;;19.90;85.80;;;;;;5074531;28;20478;-71
2023/07/07 00:58:06;;;;;;;10.43;4.97;;;19.90;85.70;;;;;;5073978;28;20487;-71
2023/07/07 01:00:35;;;;;;;11.30;4.82;;;19.90;85.70;;;;;;5074343;28;20035;-71
2023/07/07 01:03:08;;;;;;;8.93;5.00;;;19.90;86.20;;;;;;5073861;28;20135;-71
2023/07/07 01:05:37;;;;;;;13.82;5.70;;;19.90;86.20;;;;;;5074320;28;20028;-71
2023/07/07 01:08:06;;;;;;;12.25;5.60;;;19.80;85.80;;;;;;5073341;28;20086;-71
2023/07/07 01:10:32;;;;;;;10.45;4.65;;;19.80;86.30;;;;;;5074148;28;20029;-71
2023/07/07 01:12:58;;;;;;;9.35;5.63;;;19.80;86.60;;;;;;5073706;28;20470;-71
2023/07/07 01:15:27;;;;;;;7.47;5.10;;;19.70;86.50;;;;;;5073779;28;20017;-71
2023/07/07 01:18:14;;;;;;;8.80;4.90;;;19.70;86.70;;;;;;5073467;28;20110;-71
2023/07/07 01:21:01;;;;;;;8.52;5.28;;;19.70;86.80;;;;;;5073949;28;20033;-71
2023/07/07 01:23:53;;;;;;;7.97;4.80;;;19.60;86.60;;;;;;5073930;28;20115;-71
2023/07/07 01:26:46;;;;;;;9.75;5.07;;;19.70;86.30;;;;;;5073839;28;20028;-71
2023/07/07 01:29:21;;;;;;;10.48;4.90;;;19.70;86.40;;;;;;5073911;28;20525;-71
2023/07/07 01:31:58;;;;;;;6.55;4.50;;;19.60;86.70;;;;;;5072523;28;20112;-74
2023/07/07 01:34:25;;;;;;;7.63;4.60;;;19.60;86.30;;;;;;5073713;28;20029;-71
2023/07/07 01:36:50;;;;;;;9.50;4.82;;;19.60;86.60;;;;;;5073269;28;20362;-72
2023/07/07 01:39:16;;;;;;;10.38;5.32;;;19.60;86.60;;;;;;5073591;28;20030;-71
2023/07/07 01:41:50;;;;;;;9.85;4.82;;;19.50;86.50;;;;;;5073304;28;20066;-71
2023/07/07 01:44:40;;;;;;;7.90;5.22;;;19.60;86.60;;;;;;5073584;28;20025;-71
2023/07/07 01:47:18;;;;;;;9.90;4.85;;;19.50;86.30;;;;;;5073044;28;20075;-71
2023/07/07 01:49:50;;;;;;;7.35;4.20;;;19.50;86.10;;;;;;5073284;28;20031;-71
2023/07/07 01:52:23;;;;;;;7.32;4.78;;;19.50;85.90;;;;;;5073234;28;20392;-71
2023/07/07 01:54:56;;;;;;;7.00;4.63;;;19.50;85.90;;;;;;5073302;28;20032;-77
2023/07/07 01:57:25;;;;;;;9.88;4.68;;;19.50;85.90;;;;;;5072842;28;20048;-71
2023/07/07 01:59:51;;;;;;;9.63;4.60;;;19.40;86.10;;;;;;5072469;28;20123;-71
2023/07/07 02:02:17;;;;;;;9.75;4.63;;;19.40;86.30;;;;;;5073128;28;20024;-71
2023/07/07 02:04:43;;;;;;;11.38;4.70;;;19.40;86.70;;;;;;5073149;28;20051;-71
2023/07/07 02:07:09;;;;;;;7.10;4.30;;;19.30;86.40;;;;;;5072596;28;20036;-71
2023/07/07 02:09:36;;;;;;;8.60;4.93;;;19.30;86.00;;;;;;5073000;28;20028;-71
2023/07/07 02:12:02;;;;;;;7.15;5.13;;;19.30;85.50;;;;;;5072563;28;20484;-71
2023/07/07 02:14:27;;;;;;;7.40;4.22;;;19.30;85.60;;;;;;5072975;28;20032;-71
2023/07/07 02:16:53;;;;;;;7.85;4.43;;;19.20;85.80;;;;;;5072550;28;20082;-71
2023/07/07 02:19:19;;;;;;;7.82;4.43;;;19.20;85.60;;;;;;5073022;28;20029;-71
2023/07/07 02:21:44;;;;;;;8.20;4.72;;;19.20;86.00;;;;;;5073139;28;20028;-70
2023/07/07 02:24:10;;;;;;;7.57;4.93;;;19.20;85.70;;;;;;5070706;28;20037;-71
2023/07/07 02:26:35;;;;;;;10.05;5.20;;;19.10;86.00;;;;;;5072265;28;20032;-71
2023/07/07 02:29:01;;;;;;;8.20;4.45;;;19.10;86.10;;;;;;5072653;28;20020;-71
2023/07/07 02:31:27;;;;;;;9.75;4.40;;;19.10;85.80;;;;;;5072754;28;20385;-71
2023/07/07 02:33:53;;;;;;;9.93;4.93;;;19.10;86.00;;;;;;5072043;28;20366;-71
2023/07/07 02:36:19;;;;;;;9.23;4.55;;;19.10;85.70;;;;;;5072582;28;20354;-70
2023/07/07 02:38:45;;;;;;;8.15;4.47;;;19.10;85.50;;;;;;5072713;28;20054;-71
2023/07/07 02:41:11;;;;;;;8.02;5.00;;;19.10;85.70;;;;;;5072289;28;20040;-71
2023/07/07 02:43:37;;;;;;;6.22;4.30;;;19.00;85.60;;;;;;5072501;28;20020;-71
2023/07/07 02:46:03;;;;;;;7.53;4.20;;;19.00;85.70;;;;;;5071741;28;20056;-70
2023/07/07 02:48:29;;;;;;;7.65;4.65;;;19.00;85.90;;;;;;5072572;28;20465;-71
2023/07/07 02:51:00;;;;;;;7.75;4.97;;;19.00;86.00;;;;;;5071882;28;20043;-71
2023/07/07 02:53:29;;;;;;;9.77;4.22;;;19.00;86.00;;;;;;5072377;28;20020;-70
2023/07/07 02:55:55;;;;;;;8.90;4.85;;;19.00;85.90;;;;;;5072104;28;20032;-71
2023/07/07 02:58:21;;;;;;;6.90;4.43;;;18.90;85.80;;;;;;5072408;28;20020;-71
2023/07/07 03:00:48;;;;;;;7.22;4.68;;;18.90;85.80;;;;;;5072417;28;20060;-70
2023/07/07 03:03:14;;;;;;;9.35;4.40;;;18.90;86.30;;;;;;5072009;28;20028;-70
2023/07/07 03:05:40;;;;;;;8.18;4.63;;;18.90;86.20;;;;;;5072425;28;20024;-71
2023/07/07 03:08:06;;;;;;;7.18;4.60;;;18.80;86.70;;;;;;5071899;28;20050;-70
2023/07/07 03:10:33;;;;;;;8.80;4.47;;;18.80;86.80;;;;;;5072410;28;20107;-71
2023/07/07 03:12:59;;;;;;;6.32;3.97;;;18.70;87.20;;;;;;5071690;28;20602;-72
2023/07/07 03:15:39;;;;;;;6.57;4.70;;;18.70;86.90;;;;;;5072521;28;20025;-71
2023/07/07 03:18:09;;;;;;;7.53;4.25;;;18.70;87.40;;;;;;5072534;28;20029;-71
2023/07/07 03:20:35;;;;;;;8.10;4.20;;;18.70;87.50;;;;;;5073055;28;20102;-71
2023/07/07 03:23:02;;;;;;;6.13;4.28;;;18.70;87.40;;;;;;5072266;28;20041;-71
2023/07/07 03:25:29;;;;;;;6.85;4.55;;;18.60;87.50;;;;;;5072222;28;20480;-71
2023/07/07 03:27:55;;;;;;;6.95;4.60;;;18.60;87.80;;;;;;5072072;28;20032;-82
2023/07/07 03:30:20;;;;;;;10.23;4.80;;;18.60;87.80;;;;;;5072240;28;20043;-71
2023/07/07 03:32:46;;;;;;;8.00;4.60;;;18.60;87.60;;;;;;5072315;28;20112;-70
2023/07/07 03:35:12;;;;;;;7.50;4.40;;;18.70;87.80;;;;;;5071603;28;20108;-71
2023/07/07 03:37:38;;;;;;;10.25;5.13;;;18.70;88.10;;;;;;5072372;28;20029;-71
2023/07/07 03:40:06;;;;;;;9.57;4.60;;;18.70;88.20;;;;;;5071751;28;20031;-71
2023/07/07 03:42:32;;;;;;;8.70;4.47;;;18.70;88.20;;;;;;5072175;28;20025;-71
2023/07/07 03:44:58;;;;;;;7.85;5.28;;;18.70;88.10;;;;;;5071721;28;20136;-71
2023/07/07 03:47:24;;;;;;;12.77;4.80;;;18.70;88.00;;;;;;5071912;28;20086;-71
2023/07/07 03:49:49;;;;;;;7.28;4.82;;;18.80;88.10;;;;;;5071963;28;20068;-71
2023/07/07 03:52:16;;;;;;;7.15;5.43;;;18.80;88.10;;;;;;5071488;28;20047;-70
2023/07/07 03:54:41;;;;;;;14.20;4.88;;;18.80;87.70;;;;;;5073832;28;20020;-71
2023/07/07 03:57:10;;;;;;;9.15;4.70;;;18.80;87.90;;;;;;5075186;28;20035;-71
2023/07/07 03:59:36;;;;;;;9.10;4.95;;;18.90;86.90;;;;;;5075448;28;20108;-70
2023/07/07 04:02:02;;;;;;;7.68;4.60;;;18.90;87.00;;;;;;5074714;28;20103;-71
2023/07/07 04:04:28;;;;;;;7.22;4.60;;;18.90;87.00;;;;;;5075162;28;20054;-71
2023/07/07 04:06:56;;;;;;;9.30;4.80;;;18.90;86.90;;;;;;5075290;28;20153;-70
2023/07/07 04:09:22;;;;;;;6.75;4.85;;;19.00;87.00;;;;;;5073772;28;20066;-71
2023/07/07 04:11:48;;;;;;;7.75;4.60;;;19.10;87.10;;;;;;5075276;28;20024;-70
2023/07/07 04:14:14;;;;;;;9.02;4.80;;;19.10;86.80;;;;;;5074959;28;20046;-71
2023/07/07 04:16:39;;;;;;;10.43;5.07;;;19.20;86.30;;;;;;5075257;28;20036;-70
2023/07/07 04:19:05;;;;;;;8.85;5.03;;;19.30;85.50;;;;;;5074760;28;20031;-71
2023/07/07 04:21:32;;;;;;;12.52;4.68;;;19.30;85.00;;;;;;5074533;28;20147;-71
2023/07/07 04:23:59;;;;;;;7.40;4.90;;;19.40;84.20;;;;;;5073058;28;20052;-71
2023/07/07 04:26:26;;;;;;;9.35;5.05;;;19.50;83.70;;;;;;5074990;28;20036;-71
2023/07/07 04:28:53;;;;;;;7.47;4.75;;;19.60;83.40;;;;;;5074300;28;20067;-72
2023/07/07 04:31:26;;;;;;;7.05;4.55;;;19.70;82.90;;;;;;5074553;28;20025;-71
2023/07/07 04:33:52;;;;;;;7.28;4.40;;;19.80;82.60;;;;;;5073627;28;20031;-70
2023/07/07 04:36:19;;;;;;;6.35;4.35;;;19.90;82.10;;;;;;5074412;28;20028;-69
2023/07/07 04:38:45;;;;;;;9.18;5.18;;;20.00;81.80;;;;;;5074563;28;20017;-70
2023/07/07 04:41:23;;;;;;;12.00;4.93;;;20.10;80.90;;;;;;5074471;28;20396;-72
2023/07/07 04:43:51;;;;;;;8.52;4.78;;;20.30;80.00;;;;;;5074441;28;20016;-71
2023/07/07 04:46:26;;;;;;;8.95;4.95;;;20.30;79.40;;;;;;5074041;28;20048;-69
2023/07/07 04:48:52;;;;;;;5.93;4.90;;;20.40;79.70;;;;;;5074653;28;20028;-70
2023/07/07 04:51:18;;;;;;;7.03;4.72;;;20.60;79.50;;;;;;5073940;28;20436;-71
2023/07/07 04:53:44;;;;;;;9.85;4.78;;;20.90;78.90;;;;;;5074449;28;20025;-71
2023/07/07 04:56:16;;;;;;;7.88;4.97;;;21.10;77.70;;;;;;5073841;28;20028;-70
2023/07/07 04:58:43;;;;;;;8.75;5.15;;;21.30;76.90;;;;;;5074666;28;20024;-70
2023/07/07 05:01:10;;;;;;;11.32;5.20;;;21.50;75.40;;;;;;5073982;28;20025;-70
2023/07/07 05:03:38;;;;;;;10.15;4.57;;;21.80;74.80;;;;;;5074378;28;20359;-70
2023/07/07 05:06:04;;;;;;;11.15;4.85;;;22.20;73.10;;;;;;5074118;28;20033;-72
2023/07/07 05:08:34;;;;;;;12.40;4.78;;;22.70;72.00;;;;;;5073872;28;20473;-71
2023/07/07 05:11:00;;;;;;;8.65;4.60;;;23.20;70.30;;;;;;5073794;28;20032;-70
2023/07/07 05:13:26;;;;;;;9.75;4.57;;;23.80;67.50;;;;;;5073712;28;20038;-70
2023/07/07 05:16:04;;;;;;;10.57;4.70;;;24.30;66.40;;;;;;5073928;28;20029;-70
2023/07/07 05:18:30;;;;;;;14.20;5.13;;;25.00;63.80;;;;;;5073766;28;20020;-70
2023/07/07 05:20:56;;;;;;;7.65;5.10;;;25.50;62.00;;;;;;5074006;28;20035;-70
2023/07/07 05:23:22;;;;;;;7.63;4.68;;;25.90;59.90;;;;;;5073569;28;20107;-72
2023/07/07 05:25:48;;;;;;;6.45;5.10;;;26.40;58.50;;;;;;5074048;28;20480;-70
2023/07/07 05:28:13;;;;;;;8.68;5.15;;;26.90;56.60;;;;;;5073246;28;20064;-72
2023/07/07 05:30:39;;;;;;;8.20;5.03;;;27.10;54.90;;;;;;5073592;28;20044;-70
2023/07/07 05:33:05;;;;;;;9.27;5.38;;;27.30;54.00;;;;;;5073193;28;20048;-72
2023/07/07 05:35:31;;;;;;;10.43;4.93;;;27.70;52.70;;;;;;5073464;28;20032;-72
2023/07/07 05:37:57;;;;;;;8.55;5.85;;;27.90;51.20;;;;;;5073659;28;20063;-72
2023/07/07 05:40:22;;;;;;;7.10;5.07;;;27.70;50.40;;;;;;5073209;28;20388;-70
2023/07/07 05:42:48;;;;;;;9.13;5.07;;;28.00;49.80;;;;;;5073593;28;20032;-70
2023/07/07 05:45:14;;;;;;;6.50;4.93;;;28.30;48.10;;;;;;5073041;28;20028;-70
2023/07/07 05:47:39;;;;;;;11.07;5.38;;;28.20;48.50;;;;;;5073425;28;20500;-71
2023/07/07 05:50:06;;;;;;;9.23;5.28;;;28.40;47.30;;;;;;5072874;28;20032;-81
2023/07/07 05:52:31;;;;;;;11.50;5.65;;;28.60;47.10;;;;;;5073263;28;20154;-72
2023/07/07 05:54:57;;;;;;;10.15;5.95;;;29.20;46.60;;;;;;5073279;28;20082;-72
2023/07/07 05:57:23;;;;;;;8.20;5.72;;;29.60;45.80;;;;;;5072825;28;20537;-72
2023/07/07 05:59:49;;;;;;;12.30;5.50;;;29.80;45.30;;;;;;5073193;28;20163;-71
2023/07/07 06:02:15;;;;;;;10.88;5.65;;;30.10;44.40;;;;;;5072759;28;20025;-72
2023/07/07 06:04:41;;;;;;;11.45;5.50;;;30.40;43.80;;;;;;5073100;28;20028;-71
2023/07/07 06:07:07;;;;;;;7.90;5.13;;;30.90;44.60;;;;;;5072447;28;20454;-79
2023/07/07 06:09:33;;;;;;;16.10;5.90;;;31.30;42.30;;;;;;5073094;28;20473;-71
2023/07/07 06:11:59;;;;;;;6.47;4.40;;;31.80;41.00;;;;;;5073095;28;20029;-71
2023/07/07 06:14:25;;;;;;;8.95;5.43;;;32.30;40.50;;;;;;5072481;28;20063;-72
2023/07/07 06:16:50;;;;;;;8.73;5.45;;;32.70;40.60;;;;;;5072371;28;20466;-72
2023/07/07 06:19:16;;;;;;;10.43;5.00;;;33.30;40.40;;;;;;5072602;28;20025;-72
2023/07/07 06:21:41;;;;;;;6.25;4.55;;;34.00;37.40;;;;;;5072538;28;20020;-72
2023/07/07 06:24:07;;;;;;;7.10;4.72;;;34.40;36.70;;;;;;5072741;28;20462;-72
2023/07/07 06:26:33;;;;;;;10.63;4.68;;;34.80;36.20;;;;;;5072310;28;20032;-72
2023/07/07 06:28:58;;;;;;;9.32;5.50;;;35.40;35.80;;;;;;5070523;28;20335;-72
2023/07/07 06:31:24;;;;;;;7.30;5.03;;;36.00;35.80;;;;;;5072387;28;20056;-72
2023/07/07 06:33:50;;;;;;;7.28;4.65;;;36.30;34.30;;;;;;5072159;28;20108;-72
2023/07/07 06:36:15;;;;;;;7.20;4.57;;;36.70;34.30;;;;;;5072244;28;20422;-72
2023/07/07 06:38:41;;;;;;;5.85;4.10;;;37.00;33.80;;;;;;5072578;28;20474;-71
2023/07/07 06:41:11;;;;;;;6.05;4.40;;;37.10;33.70;;;;;;5072940;28;20028;-71
2023/07/07 06:43:37;;;;;;;8.45;4.20;;;37.40;32.20;;;;;;5072601;28;20028;-71
2023/07/07 06:46:02;;;;;;;7.63;4.60;;;37.20;31.70;;;;;;5072062;28;20500;-71
2023/07/07 06:48:28;;;;;;;8.52;4.32;;;37.50;31.70;;;;;;5072011;28;20098;-71
2023/07/07 06:50:54;;;;;;;7.45;4.60;;;37.90;31.60;;;;;;5072456;28;20434;-71
2023/07/07 06:53:19;;;;;;;7.53;4.28;;;38.10;32.10;;;;;;5072040;28;20029;-72
2023/07/07 06:55:45;;;;;;;8.05;4.30;;;38.00;32.00;;;;;;5072423;28;20067;-72
2023/07/07 06:58:13;;;;;;;10.70;4.40;;;38.20;31.40;;;;;;5072115;28;20033;-74
2023/07/07 07:00:39;;;;;;;10.73;4.88;;;38.60;30.70;;;;;;5072370;28;20068;-71
2023/07/07 07:03:04;;;;;;;8.85;4.70;;;38.50;30.20;;;;;;5072490;28;20058;-71
2023/07/07 07:05:30;;;;;;;10.98;4.47;;;38.30;30.30;;;;;;5071969;28;20033;-71
2023/07/07 07:07:56;;;;;;;9.68;4.82;;;38.70;30.60;;;;;;5072214;28;20123;-71
2023/07/07 07:10:21;;;;;;;9.60;4.40;;;38.40;30.30;;;;;;5071946;28;20457;-71
2023/07/07 07:12:48;;;;;;;7.80;4.38;;;38.30;29.90;;;;;;5072429;28;20358;-71
2023/07/07 07:15:14;;;;;;;9.43;4.22;;;37.40;29.80;;;;;;5071609;28;20488;-72
2023/07/07 07:17:40;;;;;;;11.77;4.88;;;37.20;30.00;;;;;;5072208;28;20058;-70
2023/07/07 07:20:10;;;;;;;8.90;4.38;;;37.30;30.50;;;;;;5072143;28;20068;-71
2023/07/07 07:22:36;;;;;;;5.82;4.40;;;36.80;31.00;;;;;;5071742;28;20033;-71
2023/07/07 07:25:02;;;;;;;9.45;5.00;;;37.10;31.30;;;;;;5072232;28;20051;-71
2023/07/07 07:27:28;;;;;;;9.30;4.88;;;37.50;31.20;;;;;;5071672;28;20055;-72
2023/07/07 07:29:54;;;;;;;9.10;4.57;;;37.50;31.10;;;;;;5074511;28;20474;-71
2023/07/07 07:32:19;;;;;;;9.65;3.88;;;37.60;30.70;;;;;;5075327;28;20067;-71
2023/07/07 07:34:45;;;;;;;9.90;4.03;;;37.50;30.20;;;;;;5075954;28;20020;-71
2023/07/07 07:37:11;;;;;;;6.72;3.70;;;38.00;29.50;;;;;;5075473;28;20028;-71
2023/07/07 07:39:36;;;;;;;7.25;3.80;;;38.20;29.50;;;;;;5075393;28;20050;-71
2023/07/07 07:42:03;;;;;;;6.65;3.75;;;38.40;29.90;;;;;;5075702;28;20028;-71
2023/07/07 07:44:29;;;;;;;5.70;4.25;;;38.30;29.60;;;;;;5075270;28;20066;-71
2023/07/07 07:46:57;;;;;;;7.03;3.83;;;37.80;28.70;;;;;;5075494;28;20051;-71
2023/07/07 07:49:24;;;;;;;7.43;4.10;;;38.10;28.90;;;;;;5075119;28;20330;-71
2023/07/07 07:51:50;;;;;;;8.30;4.32;;;38.10;29.80;;;;;;5074368;28;20330;-70
2023/07/07 07:54:18;;;;;;;7.05;4.10;;;38.40;29.30;;;;;;5074773;28;20181;-72
2023/07/07 07:56:44;;;;;;;8.40;4.05;;;38.10;29.10;;;;;;5075448;28;20381;-71
2023/07/07 07:59:09;;;;;;;8.55;4.00;;;38.10;29.20;;;;;;5075269;28;20107;-72
2023/07/07 08:01:35;;;;;;;6.57;4.10;;;38.10;29.10;;;;;;5073782;28;20056;-71
2023/07/07 08:04:05;;;;;;;7.15;3.78;;;38.30;29.40;;;;;;5075048;28;20070;-71
2023/07/07 08:06:31;;;;;;;4.40;3.50;;;38.50;28.50;;;;;;5075249;28;20040;-71
2023/07/07 08:08:57;;;;;;;7.18;4.10;;;38.50;28.60;;;;;;5075385;28;20035;-70
2023/07/07 08:11:45;;;;;;;5.75;4.10;;;38.40;28.90;;;;;;5074830;28;20024;-71
2023/07/07 08:14:22;;;;;;;6.40;3.40;;;38.40;28.90;;;;;;5074859;28;20082;-71
2023/07/07 08:16:51;;;;;;;5.45;3.85;;;38.10;28.60;;;;;;5075135;28;20060;-71
2023/07/07 08:19:16;;;;;;;7.72;3.88;;;38.00;28.70;;;;;;5074701;28;20461;-75
2023/07/07 08:21:42;;;;;;;4.80;3.55;;;37.30;29.10;;;;;;5075035;28;20078;-71
2023/07/07 08:24:08;;;;;;;9.35;4.38;;;36.50;29.50;;;;;;5074684;28;20104;-71
2023/07/07 08:26:34;;;;;;;7.60;4.03;;;36.40;30.20;;;;;;5074617;28;20040;-72
2023/07/07 08:29:00;;;;;;;6.10;3.90;;;36.20;30.50;;;;;;5074970;28;20039;-72
2023/07/07 08:31:26;;;;;;;8.93;4.28;;;36.30;30.10;;;;;;5074497;28;20024;-72
2023/07/07 08:33:52;;;;;;;5.95;4.05;;;35.80;30.20;;;;;;5075376;28;20090;-72
2023/07/07 08:36:17;;;;;;;7.00;3.67;;;35.80;30.70;;;;;;5074312;28;20025;-81
2023/07/07 08:38:43;;;;;;;5.93;3.60;;;35.80;31.10;;;;;;5074734;28;20024;-71
2023/07/07 08:41:09;;;;;;;6.60;3.65;;;35.80;31.20;;;;;;5074378;28;20093;-72
2023/07/07 08:43:36;;;;;;;6.68;3.47;;;35.60;29.60;;;;;;5073505;28;20059;-72
2023/07/07 08:46:10;;;;;;;5.72;4.05;;;35.30;29.30;;;;;;5074458;28;20166;-72
2023/07/07 08:48:53;;;;;;;5.63;3.75;;;34.40;30.30;;;;;;5074265;28;20071;-72
2023/07/07 08:51:23;;;;;;;5.82;3.38;;;34.00;31.60;;;;;;5074448;28;20055;-80
2023/07/07 08:54:07;;;;;;;8.40;3.80;;;33.90;31.20;;;;;;5074565;28;20031;-71
2023/07/07 08:56:44;;;;;;;5.15;3.45;;;33.50;31.20;;;;;;5074104;28;20039;-72
2023/07/07 08:59:24;;;;;;;5.13;3.40;;;32.90;32.40;;;;;;5074407;28;20032;-72
2023/07/07 09:01:59;;;;;;;6.43;3.38;;;32.90;32.60;;;;;;5074530;28;20028;-71
2023/07/07 09:04:47;;;;;;;5.18;3.00;;;32.70;31.20;;;;;;5074001;28;20032;-72
2023/07/07 09:07:40;;;;;;;6.50;2.95;;;32.50;31.50;;;;;;5074152;28;20062;-71
2023/07/07 09:10:11;;;;;;;6.03;3.13;;;32.40;31.50;;;;;;5074159;28;20027;-71
2023/07/07 09:12:52;;;;;;;7.07;3.47;;;32.40;31.80;;;;;;5073295;28;20465;-71
2023/07/07 09:15:22;;;;;;;7.45;2.97;;;32.30;33.10;;;;;;5073830;28;20052;-71
2023/07/07 09:18:10;;;;;;;4.70;3.28;;;32.20;32.20;;;;;;5073669;28;20507;-71
2023/07/07 09:20:36;;;;;;;4.95;2.75;;;32.00;31.10;;;;;;5073668;28;20056;-71
2023/07/07 09:23:09;;;;;;;4.72;2.75;;;31.80;30.60;;;;;;5073926;28;20036;-71
2023/07/07 09:25:58;;;;;;;5.57;2.90;;;31.60;30.60;;;;;;5073618;28;20035;-71
2023/07/07 09:28:27;;;;;;;4.68;2.95;;;31.40;31.00;;;;;;5073303;28;20078;-71
2023/07/07 09:31:50;;;;;;;3.38;2.55;;;31.20;31.00;;;;;;5073672;28;20024;-71
2023/07/07 09:34:16;;;;;;;5.80;2.60;;;30.90;30.70;;;;;;5011567;28;20026;-71
2023/07/07 09:37:06;;;;;;;4.50;2.63;;;30.60;31.00;;;;;;5011227;28;20434;-71
2023/07/07 09:40:02;;;;;;;5.55;2.75;;;30.50;31.60;;;;;;5011296;28;20049;-70
2023/07/07 09:42:58;;;;;;;3.60;2.30;;;30.50;31.90;;;;;;5011245;28;20030;-71
2023/07/07 09:45:35;;;;;;;4.30;2.78;;;30.40;31.90;;;;;;5011189;28;20109;-71
2023/07/07 09:48:35;;;;;;;7.43;2.70;;;30.30;32.30;;;;;;5011596;28;20053;-70
2023/07/07 09:51:28;;;;;;;7.35;2.90;;;30.20;32.50;;;;;;5011052;28;20104;-71
2023/07/07 09:53:54;;;;;;;5.22;2.72;;;30.30;33.00;;;;;;5011198;28;20392;-71
2023/07/07 09:56:24;;;;;;;3.85;2.60;;;30.20;32.20;;;;;;5011385;28;20030;-70
2023/07/07 09:59:02;;;;;;;6.35;2.80;;;30.10;32.70;;;;;;5011044;28;20045;-70
2023/07/07 10:01:32;;;;;;;6.05;2.55;;;30.10;33.10;;;;;;5010591;28;20509;-71
2023/07/07 10:04:00;;;;;;;6.25;2.78;;;30.10;32.30;;;;;;5015229;28;20030;-71
2023/07/07 10:06:38;;;;;;;6.32;3.03;;;30.00;32.50;;;;;;5072646;28;20020;-70
2023/07/07 10:09:08;;;;;;;7.40;2.60;;;30.00;32.90;;;;;;5072736;28;20055;-70
2023/07/07 10:11:42;;;;;;;9.32;2.67;;;30.00;32.90;;;;;;5072405;28;20029;-71
2023/07/07 10:14:11;;;;;;;4.13;2.55;;;30.00;33.30;;;;;;5072636;28;20028;-70
2023/07/07 10:16:56;;;;;;;3.33;2.53;;;30.10;32.50;;;;;;5072446;28;20025;-71
2023/07/07 10:19:24;;;;;;;6.25;2.80;;;30.10;33.10;;;;;;5072934;28;20051;-69
2023/07/07 10:21:50;;;;;;;3.97;2.72;;;30.10;32.40;;;;;;5072570;28;20064;-70
2023/07/07 10:24:16;;;;;;;4.45;2.40;;;29.80;32.60;;;;;;5072790;28;20035;-70
2023/07/07 10:26:47;;;;;;;5.18;2.95;;;29.80;32.80;;;;;;5072234;28;20036;-70
2023/07/07 10:29:26;;;;;;;3.72;2.63;;;29.80;32.90;;;;;;5072536;28;20111;-72
2023/07/07 10:31:52;;;;;;;4.65;2.53;;;29.90;33.70;;;;;;5072345;28;20078;-71
2023/07/07 10:34:20;;;;;;;5.07;2.80;;;29.90;33.30;;;;;;5072654;28;20131;-71
2023/07/07 10:36:46;;;;;;;3.97;2.45;;;29.90;33.10;;;;;;5072206;28;20119;-71
2023/07/07 10:39:12;;;;;;;4.20;2.60;;;30.00;32.90;;;;;;5073001;28;20135;-71
2023/07/07 10:41:38;;;;;;;3.05;2.22;;;30.00;32.40;;;;;;5072613;28;20020;-71
2023/07/07 10:44:04;;;;;;;6.65;2.70;;;29.90;32.40;;;;;;5072407;28;20024;-71
2023/07/07 10:46:29;;;;;;;2.88;2.40;;;30.00;33.30;;;;;;5071457;28;20113;-71
2023/07/07 10:48:56;;;;;;;4.00;2.60;;;30.10;33.00;;;;;;5072362;28;20079;-71
2023/07/07 10:51:31;;;;;;;8.27;2.70;;;30.10;33.10;;;;;;5072154;28;20138;-71
2023/07/07 10:54:17;;;;;;;5.07;2.85;;;30.10;32.10;;;;;;5072197;28;20036;-71
2023/07/07 10:56:46;;;;;;;3.72;2.97;;;30.10;32.70;;;;;;5072111;28;20029;-71
2023/07/07 10:59:17;;;;;;;4.68;2.80;;;30.20;32.60;;;;;;5072289;28;20029;-71
2023/07/07 11:02:02;;;;;;;3.97;2.20;;;30.10;31.80;;;;;;5072335;28;20032;-71
2023/07/07 11:04:51;;;;;;;5.18;3.17;;;30.10;32.40;;;;;;5075619;28;20028;-71
2023/07/07 11:07:36;;;;;;;4.45;2.60;;;30.00;32.50;;;;;;5068638;28;20094;-71
2023/07/07 11:10:07;;;;;;;6.95;2.50;;;30.10;32.30;;;;;;5076377;28;20090;-71
2023/07/07 11:12:42;;;;;;;4.53;2.90;;;30.20;32.40;;;;;;5075703;28;20029;-71
2023/07/07 11:15:40;;;;;;;3.55;2.63;;;30.20;32.00;;;;;;5076866;28;20090;-70
2023/07/07 11:18:37;;;;;;;5.18;2.70;;;30.30;31.40;;;;;;5076416;28;20358;-71
2023/07/07 11:21:43;;;;;;;6.85;2.97;;;30.40;32.80;;;;;;5076381;28;20028;-71
2023/07/07 11:24:11;;;;;;;6.03;2.50;;;30.50;32.30;;;;;;5076503;28;20465;-71
2023/07/07 11:27:09;;;;;;;3.17;2.58;;;30.50;31.40;;;;;;5075631;28;20034;-71
2023/07/07 11:29:52;;;;;;;5.72;2.78;;;30.40;32.40;;;;;;5054144;28;20048;-71
2023/07/07 11:32:20;;;;;;;4.80;2.60;;;30.20;31.70;;;;;;5076157;28;20111;-71
2023/07/07 11:35:25;;;;;;;7.88;2.67;;;30.30;32.00;;;;;;5075592;28;20029;-71
2023/07/07 11:38:41;;;;;;;4.57;2.38;;;30.10;31.40;;;;;;5075334;28;20033;-71
2023/07/07 11:41:31;;;;;;;4.13;2.65;;;30.10;31.80;;;;;;5033712;28;20061;-70
2023/07/07 11:44:09;;;;;;;3.40;2.80;;;30.30;32.30;;;;;;5074167;28;20039;-70
2023/07/07 11:46:43;;;;;;;6.80;3.67;;;30.50;32.20;;;;;;5075457;28;20076;-71
2023/07/07 11:49:45;;;;;;;5.30;2.83;;;30.50;30.80;;;;;;5075951;28;20059;-71
2023/07/07 11:52:44;;;;;;;3.88;2.40;;;30.50;31.30;;;;;;5075735;28;20028;-71
2023/07/07 11:55:46;;;;;;;5.13;2.55;;;30.10;31.50;;;;;;5075662;28;20031;-71
2023/07/07 11:58:35;;;;;;;3.45;2.25;;;30.10;31.70;;;;;;5075461;28;20028;-71
2023/07/07 12:01:15;;;;;;;4.03;2.50;;;30.20;31.70;;;;;;5075761;28;20071;-71
2023/07/07 12:04:09;;;;;;;4.85;3.13;;;30.10;32.00;;;;;;5075161;28;20477;-71
2023/07/07 12:06:48;;;;;;;2.65;2.40;;;30.10;32.00;;;;;;5074726;28;20103;-71
2023/07/07 12:09:34;;;;;;;4.93;2.38;;;29.90;32.00;;;;;;5075416;28;20037;-71
2023/07/07 12:12:14;;;;;;;4.90;2.65;;;29.90;31.70;;;;;;5075161;28;20052;-71
2023/07/07 12:15:05;;;;;;;4.72;3.00;;;29.80;31.60;;;;;;5074506;28;20046;-72
2023/07/07 12:17:36;;;;;;;3.75;2.40;;;29.80;32.10;;;;;;5075005;28;20062;-70
2023/07/07 12:20:14;;;;;;;8.45;2.65;;;29.80;32.50;;;;;;5075462;28;20031;-70
2023/07/07 12:22:40;;;;;;;5.88;2.60;;;29.70;32.50;;;;;;5074782;28;20381;-70
2023/07/07 12:25:12;;;;;;;3.67;2.63;;;29.70;31.90;;;;;;5074674;28;20062;-70
2023/07/07 12:27:51;;;;;;;3.83;2.70;;;29.60;32.20;;;;;;5074045;28;20039;-70
2023/07/07 12:30:30;;;;;;;4.28;2.95;;;29.40;32.50;;;;;;5074888;28;20111;-70
2023/07/07 12:32:57;;;;;;;4.13;2.80;;;29.40;32.60;;;;;;5074448;28;20021;-70
2023/07/07 12:35:41;;;;;;;3.28;2.15;;;29.50;33.60;;;;;;5074820;28;20039;-70
2023/07/07 12:38:27;;;;;;;5.03;2.88;;;29.40;32.40;;;;;;5074827;28;20090;-70
2023/07/07 12:40:56;;;;;;;3.83;2.30;;;29.40;32.80;;;;;;5074134;28;20033;-70
2023/07/07 12:43:32;;;;;;;3.17;2.40;;;29.30;32.30;;;;;;5074397;28;20078;-70
2023/07/07 12:45:57;;;;;;;3.45;2.63;;;29.30;32.20;;;;;;5072604;28;20439;-71
2023/07/07 12:48:27;;;;;;;5.57;2.35;;;29.20;32.60;;;;;;5074540;28;20033;-70
2023/07/07 12:51:07;;;;;;;3.53;2.30;;;29.20;32.70;;;;;;5074406;28;20111;-70
2023/07/07 12:53:39;;;;;;;;;;;29.20;33.50;;;;;;5074418;28;20078;-71
2023/07/07 12:56:07;;;;;;;2.92;2.20;;;29.20;32.50;;;;;;5073942;28;19999;-75
2023/07/07 12:58:36;;;;;;;7.30;3.13;;;28.80;32.70;;;;;;5073200;28;20473;-73
2023/07/07 13:01:13;;;;;;;5.18;2.50;;;28.90;32.90;;;;;;5073508;28;20078;-71
2023/07/07 13:03:58;;;;;;;3.83;2.78;;;28.90;33.60;;;;;;5073727;28;20021;-71
2023/07/07 13:06:25;;;;;;;3.53;2.97;;;28.90;32.20;;;;;;5074147;28;20092;-71